sensor_id;sensor_type;location;lat;lon;timestamp;temperature;humidity
2220;DHT22;1116;51.502;7.414;2023-10-19T00:02:11;12.70;99.90
2220;DHT22;1116;51.502;7.414;2023-10-19T00:04:42;12.70;99.90
2220;DHT22;1116;51.502;7.414;2023-10-19T00:07:15;12.70;99.90
2220;DHT22;1116;51.502;7.414;2023-10-19T00:09:43;12.70;99.90
2220;DHT22;1116;51.502;7.414;2023-10-19T00:12:15;12.70;99.90
2220;DHT22;1116;51.502;7.414;2023-10-19T00:14:43;12.70;99.90
2220;DHT22;1116;51.502;7.414;2023-10-19T00:17:13;12.80;99.90
2220;DHT22;1116;51.502;7.414;2023-10-19T00:19:42;12.80;99.90
2220;DHT22;1116;51.502;7.414;2023-10-19T00:22:27;12.80;99.90
2220;DHT22;1116;51.502;7.414;2023-10-19T00:24:58;12.90;99.90
2220;DHT22;1116;51.502;7.414;2023-10-19T00:27:29;12.90;99.90
2220;DHT22;1116;51.502;7.414;2023-10-19T00:30:00;12.90;99.90
2220;DHT22;1116;51.502;7.414;2023-10-19T00:32:33;13.00;99.90
2220;DHT22;1116;51.502;7.414;2023-10-19T00:35:06;13.00;99.90
2220;DHT22;1116;51.502;7.414;2023-10-19T00:37:57;13.00;99.90
2220;DHT22;1116;51.502;7.414;2023-10-19T00:40:50;13.00;99.90
2220;DHT22;1116;51.502;7.414;2023-10-19T00:43:27;13.10;99.90
2220;DHT22;1116;51.502;7.414;2023-10-19T00:46:00;13.10;99.90
2220;DHT22;1116;51.502;7.414;2023-10-19T00:48:37;13.00;99.90
2220;DHT22;1116;51.502;7.414;2023-10-19T00:51:08;13.00;99.90
2220;DHT22;1116;51.502;7.414;2023-10-19T00:53:57;13.10;99.90
2220;DHT22;1116;51.502;7.414;2023-10-19T00:56:31;13.20;99.90
2220;DHT22;1116;51.502;7.414;2023-10-19T00:59:02;13.20;99.90
2220;DHT22;1116;51.502;7.414;2023-10-19T01:01:40;13.10;99.90
2220;DHT22;1116;51.502;7.414;2023-10-19T01:04:15;13.30;99.90
2220;DHT22;1116;51.502;7.414;2023-10-19T01:06:49;13.30;99.90
2220;DHT22;1116;51.502;7.414;2023-10-19T01:09:36;13.30;99.90
2220;DHT22;1116;51.502;7.414;2023-10-19T01:12:07;13.30;99.90
2220;DHT22;1116;51.502;7.414;2023-10-19T01:15:03;13.30;99.90
2220;DHT22;1116;51.502;7.414;2023-10-19T01:17:40;13.30;99.90
2220;DHT22;1116;51.502;7.414;2023-10-19T01:20:13;13.30;99.90
2220;DHT22;1116;51.502;7.414;2023-10-19T01:22:59;13.30;99.90
2220;DHT22;1116;51.502;7.414;2023-10-19T01:25:44;13.30;99.90
2220;DHT22;1116;51.502;7.414;2023-10-19T01:28:17;13.40;99.90
2220;DHT22;1116;51.502;7.414;2023-10-19T01:30:52;13.40;99.90
2220;DHT22;1116;51.502;7.414;2023-10-19T01:33:22;13.40;99.90
2220;DHT22;1116;51.502;7.414;2023-10-19T01:35:55;13.50;99.90
2220;DHT22;1116;51.502;7.414;2023-10-19T01:38:44;13.50;99.90
2220;DHT22;1116;51.502;7.414;2023-10-19T01:41:11;13.60;99.90
2220;DHT22;1116;51.502;7.414;2023-10-19T01:43:46;13.60;99.90
2220;DHT22;1116;51.502;7.414;2023-10-19T01:46:21;13.60;99.90
2220;DHT22;1116;51.502;7.414;2023-10-19T01:48:58;13.60;99.90
2220;DHT22;1116;51.502;7.414;2023-10-19T01:51:27;13.70;99.90
2220;DHT22;1116;51.502;7.414;2023-10-19T01:54:02;13.70;99.90
2220;DHT22;1116;51.502;7.414;2023-10-19T01:56:30;13.80;99.90
2220;DHT22;1116;51.502;7.414;2023-10-19T01:59:03;13.80;99.90
2220;DHT22;1116;51.502;7.414;2023-10-19T02:01:31;13.80;99.90
2220;DHT22;1116;51.502;7.414;2023-10-19T02:04:06;13.80;99.90
2220;DHT22;1116;51.502;7.414;2023-10-19T02:06:43;13.80;99.90
2220;DHT22;1116;51.502;7.414;2023-10-19T02:09:20;13.80;99.90
2220;DHT22;1116;51.502;7.414;2023-10-19T02:11:53;13.90;99.90
2220;DHT22;1116;51.502;7.414;2023-10-19T02:14:26;13.90;99.90
2220;DHT22;1116;51.502;7.414;2023-10-19T02:17:00;13.80;99.90
2220;DHT22;1116;51.502;7.414;2023-10-19T02:19:31;13.80;99.90
2220;DHT22;1116;51.502;7.414;2023-10-19T02:22:02;13.90;99.90
2220;DHT22;1116;51.502;7.414;2023-10-19T02:24:38;13.80;99.90
2220;DHT22;1116;51.502;7.414;2023-10-19T02:27:06;13.80;99.90
2220;DHT22;1116;51.502;7.414;2023-10-19T02:29:45;13.80;99.90
2220;DHT22;1116;51.502;7.414;2023-10-19T02:32:13;13.90;99.90
2220;DHT22;1116;51.502;7.414;2023-10-19T02:34:46;13.90;99.90
2220;DHT22;1116;51.502;7.414;2023-10-19T02:37:16;13.90;99.90
2220;DHT22;1116;51.502;7.414;2023-10-19T02:39:46;13.90;99.90
2220;DHT22;1116;51.502;7.414;2023-10-19T02:42:16;13.90;99.90
2220;DHT22;1116;51.502;7.414;2023-10-19T02:44:44;13.90;99.90
2220;DHT22;1116;51.502;7.414;2023-10-19T02:47:14;14.00;99.90
2220;DHT22;1116;51.502;7.414;2023-10-19T02:49:42;13.90;99.90
2220;DHT22;1116;51.502;7.414;2023-10-19T02:52:18;14.00;99.90
2220;DHT22;1116;51.502;7.414;2023-10-19T02:54:48;14.00;99.90
2220;DHT22;1116;51.502;7.414;2023-10-19T02:57:23;14.00;99.90
2220;DHT22;1116;51.502;7.414;2023-10-19T02:59:51;14.00;99.90
2220;DHT22;1116;51.502;7.414;2023-10-19T03:02:22;14.00;99.90
2220;DHT22;1116;51.502;7.414;2023-10-19T03:04:55;14.00;99.90
2220;DHT22;1116;51.502;7.414;2023-10-19T03:07:25;14.00;99.90
2220;DHT22;1116;51.502;7.414;2023-10-19T03:09:56;14.00;99.90
2220;DHT22;1116;51.502;7.414;2023-10-19T03:12:29;14.00;99.90
2220;DHT22;1116;51.502;7.414;2023-10-19T03:14:57;14.10;99.90
2220;DHT22;1116;51.502;7.414;2023-10-19T03:17:28;14.00;99.90
2220;DHT22;1116;51.502;7.414;2023-10-19T03:19:57;14.00;99.90
2220;DHT22;1116;51.502;7.414;2023-10-19T03:22:27;14.10;99.90
2220;DHT22;1116;51.502;7.414;2023-10-19T03:25:00;14.10;99.90
2220;DHT22;1116;51.502;7.414;2023-10-19T03:27:41;14.20;99.90
2220;DHT22;1116;51.502;7.414;2023-10-19T03:30:12;14.30;99.90
2220;DHT22;1116;51.502;7.414;2023-10-19T03:32:46;14.30;99.90
2220;DHT22;1116;51.502;7.414;2023-10-19T03:35:16;14.40;99.90
2220;DHT22;1116;51.502;7.414;2023-10-19T03:37:48;14.40;99.90
2220;DHT22;1116;51.502;7.414;2023-10-19T03:40:21;14.40;99.90
2220;DHT22;1116;51.502;7.414;2023-10-19T03:42:57;14.40;99.90
2220;DHT22;1116;51.502;7.414;2023-10-19T03:45:32;14.50;99.90
2220;DHT22;1116;51.502;7.414;2023-10-19T03:48:06;14.50;99.90
2220;DHT22;1116;51.502;7.414;2023-10-19T03:50:38;14.50;99.90
2220;DHT22;1116;51.502;7.414;2023-10-19T03:53:09;14.40;99.90
2220;DHT22;1116;51.502;7.414;2023-10-19T03:55:42;14.50;99.90
2220;DHT22;1116;51.502;7.414;2023-10-19T03:58:14;14.50;99.90
2220;DHT22;1116;51.502;7.414;2023-10-19T04:00:47;14.50;99.90
2220;DHT22;1116;51.502;7.414;2023-10-19T04:03:18;14.50;99.90
2220;DHT22;1116;51.502;7.414;2023-10-19T04:05:52;14.50;99.90
2220;DHT22;1116;51.502;7.414;2023-10-19T04:08:22;14.50;99.90
2220;DHT22;1116;51.502;7.414;2023-10-19T04:10:56;14.50;99.90
2220;DHT22;1116;51.502;7.414;2023-10-19T04:13:38;14.60;99.90
2220;DHT22;1116;51.502;7.414;2023-10-19T04:16:09;14.60;99.90
2220;DHT22;1116;51.502;7.414;2023-10-19T04:18:39;14.60;99.90
2220;DHT22;1116;51.502;7.414;2023-10-19T04:21:10;14.60;99.90
2220;DHT22;1116;51.502;7.414;2023-10-19T04:23:40;14.60;99.90
2220;DHT22;1116;51.502;7.414;2023-10-19T04:26:14;14.60;99.90
2220;DHT22;1116;51.502;7.414;2023-10-19T04:28:45;14.60;99.90
2220;DHT22;1116;51.502;7.414;2023-10-19T04:31:17;14.60;99.90
2220;DHT22;1116;51.502;7.414;2023-10-19T04:33:50;14.60;99.90
2220;DHT22;1116;51.502;7.414;2023-10-19T04:36:21;14.60;99.90
2220;DHT22;1116;51.502;7.414;2023-10-19T04:38:52;14.60;99.90
2220;DHT22;1116;51.502;7.414;2023-10-19T04:41:25;14.70;99.90
2220;DHT22;1116;51.502;7.414;2023-10-19T04:43:57;14.60;99.90
2220;DHT22;1116;51.502;7.414;2023-10-19T04:46:28;14.60;99.90
2220;DHT22;1116;51.502;7.414;2023-10-19T04:48:58;14.60;99.90
2220;DHT22;1116;51.502;7.414;2023-10-19T04:51:28;14.60;99.90
2220;DHT22;1116;51.502;7.414;2023-10-19T04:53:58;14.60;99.90
2220;DHT22;1116;51.502;7.414;2023-10-19T04:56:31;14.70;99.90
2220;DHT22;1116;51.502;7.414;2023-10-19T04:59:03;14.80;99.90
2220;DHT22;1116;51.502;7.414;2023-10-19T05:01:33;14.80;99.90
2220;DHT22;1116;51.502;7.414;2023-10-19T05:04:04;14.70;99.90
2220;DHT22;1116;51.502;7.414;2023-10-19T05:06:35;14.70;99.90
2220;DHT22;1116;51.502;7.414;2023-10-19T05:09:05;14.70;99.90
2220;DHT22;1116;51.502;7.414;2023-10-19T05:11:38;14.70;99.90
2220;DHT22;1116;51.502;7.414;2023-10-19T05:14:09;14.70;99.90
2220;DHT22;1116;51.502;7.414;2023-10-19T05:16:40;14.80;99.90
2220;DHT22;1116;51.502;7.414;2023-10-19T05:19:11;14.80;99.90
2220;DHT22;1116;51.502;7.414;2023-10-19T05:21:38;14.80;99.90
2220;DHT22;1116;51.502;7.414;2023-10-19T05:24:09;14.80;99.90
2220;DHT22;1116;51.502;7.414;2023-10-19T05:26:41;14.80;99.90
2220;DHT22;1116;51.502;7.414;2023-10-19T05:29:13;14.80;99.90
2220;DHT22;1116;51.502;7.414;2023-10-19T05:31:43;14.90;99.90
2220;DHT22;1116;51.502;7.414;2023-10-19T05:34:13;14.90;99.90
2220;DHT22;1116;51.502;7.414;2023-10-19T05:36:43;15.00;99.90
2220;DHT22;1116;51.502;7.414;2023-10-19T05:39:16;14.90;99.90
2220;DHT22;1116;51.502;7.414;2023-10-19T05:41:49;14.90;99.90
2220;DHT22;1116;51.502;7.414;2023-10-19T05:44:20;14.90;99.90
2220;DHT22;1116;51.502;7.414;2023-10-19T05:46:52;15.00;99.90
2220;DHT22;1116;51.502;7.414;2023-10-19T05:49:22;15.00;99.90
2220;DHT22;1116;51.502;7.414;2023-10-19T05:51:53;14.90;99.90
2220;DHT22;1116;51.502;7.414;2023-10-19T05:54:23;14.90;99.90
2220;DHT22;1116;51.502;7.414;2023-10-19T05:56:56;14.90;99.90
2220;DHT22;1116;51.502;7.414;2023-10-19T05:59:27;15.00;99.90
2220;DHT22;1116;51.502;7.414;2023-10-19T06:02:00;14.90;99.90
2220;DHT22;1116;51.502;7.414;2023-10-19T06:04:34;15.00;99.90
2220;DHT22;1116;51.502;7.414;2023-10-19T06:07:05;15.00;99.90
2220;DHT22;1116;51.502;7.414;2023-10-19T06:09:36;15.00;99.90
2220;DHT22;1116;51.502;7.414;2023-10-19T06:12:09;15.00;99.90
2220;DHT22;1116;51.502;7.414;2023-10-19T06:14:39;15.00;99.90
2220;DHT22;1116;51.502;7.414;2023-10-19T06:17:10;15.00;99.90
2220;DHT22;1116;51.502;7.414;2023-10-19T06:19:46;15.10;99.90
2220;DHT22;1116;51.502;7.414;2023-10-19T06:22:16;15.00;99.90
2220;DHT22;1116;51.502;7.414;2023-10-19T06:24:46;15.10;99.90
2220;DHT22;1116;51.502;7.414;2023-10-19T06:27:19;15.00;99.90
2220;DHT22;1116;51.502;7.414;2023-10-19T06:29:50;15.00;99.70
2220;DHT22;1116;51.502;7.414;2023-10-19T06:32:20;15.00;98.00
2220;DHT22;1116;51.502;7.414;2023-10-19T06:34:50;15.00;96.90
2220;DHT22;1116;51.502;7.414;2023-10-19T06:37:21;15.10;97.30
2220;DHT22;1116;51.502;7.414;2023-10-19T06:39:51;15.20;94.80
2220;DHT22;1116;51.502;7.414;2023-10-19T06:42:24;15.10;94.80
2220;DHT22;1116;51.502;7.414;2023-10-19T06:44:56;15.20;95.40
2220;DHT22;1116;51.502;7.414;2023-10-19T06:47:26;15.20;95.70
2220;DHT22;1116;51.502;7.414;2023-10-19T06:49:56;15.20;94.50
2220;DHT22;1116;51.502;7.414;2023-10-19T06:52:27;15.20;94.00
2220;DHT22;1116;51.502;7.414;2023-10-19T06:54:59;15.20;94.00
2220;DHT22;1116;51.502;7.414;2023-10-19T06:57:32;15.30;94.00
2220;DHT22;1116;51.502;7.414;2023-10-19T07:00:02;15.30;94.00
2220;DHT22;1116;51.502;7.414;2023-10-19T07:02:41;15.30;94.00
2220;DHT22;1116;51.502;7.414;2023-10-19T07:05:13;15.30;92.20
2220;DHT22;1116;51.502;7.414;2023-10-19T07:07:45;15.30;92.10
2220;DHT22;1116;51.502;7.414;2023-10-19T07:10:15;15.30;92.40
2220;DHT22;1116;51.502;7.414;2023-10-19T07:12:53;15.30;91.90
2220;DHT22;1116;51.502;7.414;2023-10-19T07:15:25;15.40;91.50
2220;DHT22;1116;51.502;7.414;2023-10-19T07:17:57;15.40;91.60
2220;DHT22;1116;51.502;7.414;2023-10-19T07:20:27;15.40;91.10
2220;DHT22;1116;51.502;7.414;2023-10-19T07:23:00;15.40;91.80
2220;DHT22;1116;51.502;7.414;2023-10-19T07:25:37;15.50;91.20
2220;DHT22;1116;51.502;7.414;2023-10-19T07:28:13;15.50;89.80
2220;DHT22;1116;51.502;7.414;2023-10-19T07:30:44;15.50;86.90
2220;DHT22;1116;51.502;7.414;2023-10-19T07:33:14;15.60;89.90
2220;DHT22;1116;51.502;7.414;2023-10-19T07:35:48;15.60;86.50
2220;DHT22;1116;51.502;7.414;2023-10-19T07:38:20;15.60;87.50
2220;DHT22;1116;51.502;7.414;2023-10-19T07:40:51;15.70;86.10
2220;DHT22;1116;51.502;7.414;2023-10-19T07:43:24;15.60;86.10
2220;DHT22;1116;51.502;7.414;2023-10-19T07:45:55;15.70;85.90
2220;DHT22;1116;51.502;7.414;2023-10-19T07:48:25;15.70;83.00
2220;DHT22;1116;51.502;7.414;2023-10-19T07:50:55;15.70;83.50
2220;DHT22;1116;51.502;7.414;2023-10-19T07:53:26;15.70;83.40
2220;DHT22;1116;51.502;7.414;2023-10-19T07:55:57;15.80;82.60
2220;DHT22;1116;51.502;7.414;2023-10-19T07:58:29;15.80;80.20
2220;DHT22;1116;51.502;7.414;2023-10-19T08:01:01;15.80;80.20
2220;DHT22;1116;51.502;7.414;2023-10-19T08:03:33;15.90;78.30
2220;DHT22;1116;51.502;7.414;2023-10-19T08:06:03;15.90;80.70
2220;DHT22;1116;51.502;7.414;2023-10-19T08:08:34;15.90;78.90
2220;DHT22;1116;51.502;7.414;2023-10-19T08:11:04;15.80;77.90
2220;DHT22;1116;51.502;7.414;2023-10-19T08:13:38;15.90;78.60
2220;DHT22;1116;51.502;7.414;2023-10-19T08:16:09;15.90;78.60
2220;DHT22;1116;51.502;7.414;2023-10-19T08:18:39;15.90;78.10
2220;DHT22;1116;51.502;7.414;2023-10-19T08:21:09;15.90;78.00
2220;DHT22;1116;51.502;7.414;2023-10-19T08:23:39;16.00;76.90
2220;DHT22;1116;51.502;7.414;2023-10-19T08:26:12;16.10;76.90
2220;DHT22;1116;51.502;7.414;2023-10-19T08:28:45;16.10;76.00
2220;DHT22;1116;51.502;7.414;2023-10-19T08:31:15;16.10;75.90
2220;DHT22;1116;51.502;7.414;2023-10-19T08:33:45;16.20;75.60
2220;DHT22;1116;51.502;7.414;2023-10-19T08:36:17;16.20;75.20
2220;DHT22;1116;51.502;7.414;2023-10-19T08:38:48;16.20;74.10
2220;DHT22;1116;51.502;7.414;2023-10-19T08:41:21;16.40;75.90
2220;DHT22;1116;51.502;7.414;2023-10-19T08:43:53;16.50;72.30
2220;DHT22;1116;51.502;7.414;2023-10-19T08:46:23;16.60;73.30
2220;DHT22;1116;51.502;7.414;2023-10-19T08:48:55;16.70;72.20
2220;DHT22;1116;51.502;7.414;2023-10-19T08:51:26;16.70;71.50
2220;DHT22;1116;51.502;7.414;2023-10-19T08:53:56;16.80;71.60
2220;DHT22;1116;51.502;7.414;2023-10-19T08:56:26;16.90;71.10
2220;DHT22;1116;51.502;7.414;2023-10-19T09:01:30;16.90;69.80
2220;DHT22;1116;51.502;7.414;2023-10-19T09:04:02;16.90;68.80
2220;DHT22;1116;51.502;7.414;2023-10-19T09:06:34;16.90;68.60
2220;DHT22;1116;51.502;7.414;2023-10-19T09:09:08;17.00;69.10
2220;DHT22;1116;51.502;7.414;2023-10-19T09:11:43;17.10;70.60
2220;DHT22;1116;51.502;7.414;2023-10-19T09:14:31;17.20;67.90
2220;DHT22;1116;51.502;7.414;2023-10-19T09:17:03;17.30;67.50
2220;DHT22;1116;51.502;7.414;2023-10-19T09:19:39;17.80;65.10
2220;DHT22;1116;51.502;7.414;2023-10-19T09:22:10;18.00;64.10
2220;DHT22;1116;51.502;7.414;2023-10-19T09:24:46;18.10;63.90
2220;DHT22;1116;51.502;7.414;2023-10-19T09:27:18;18.10;62.40
2220;DHT22;1116;51.502;7.414;2023-10-19T09:29:51;18.10;65.00
2220;DHT22;1116;51.502;7.414;2023-10-19T09:32:21;18.00;62.40
2220;DHT22;1116;51.502;7.414;2023-10-19T09:34:51;17.90;64.00
2220;DHT22;1116;51.502;7.414;2023-10-19T09:37:22;17.80;64.40
2220;DHT22;1116;51.502;7.414;2023-10-19T09:39:53;17.80;63.50
2220;DHT22;1116;51.502;7.414;2023-10-19T09:42:24;17.80;63.80
2220;DHT22;1116;51.502;7.414;2023-10-19T09:45:00;17.70;63.60
2220;DHT22;1116;51.502;7.414;2023-10-19T09:47:36;17.70;62.40
2220;DHT22;1116;51.502;7.414;2023-10-19T09:50:09;17.80;63.80
2220;DHT22;1116;51.502;7.414;2023-10-19T09:52:40;17.80;62.40
2220;DHT22;1116;51.502;7.414;2023-10-19T09:55:12;17.70;62.20
2220;DHT22;1116;51.502;7.414;2023-10-19T09:57:59;17.80;62.20
2220;DHT22;1116;51.502;7.414;2023-10-19T10:00:36;17.80;62.20
2220;DHT22;1116;51.502;7.414;2023-10-19T10:03:42;17.90;62.30
2220;DHT22;1116;51.502;7.414;2023-10-19T10:06:15;17.90;62.30
2220;DHT22;1116;51.502;7.414;2023-10-19T10:08:48;18.00;61.50
2220;DHT22;1116;51.502;7.414;2023-10-19T10:11:21;18.20;61.50
2220;DHT22;1116;51.502;7.414;2023-10-19T10:13:54;18.30;59.60
2220;DHT22;1116;51.502;7.414;2023-10-19T10:16:28;18.50;58.50
2220;DHT22;1116;51.502;7.414;2023-10-19T10:18:59;18.60;59.40
2220;DHT22;1116;51.502;7.414;2023-10-19T10:21:30;18.60;58.00
2220;DHT22;1116;51.502;7.414;2023-10-19T10:24:03;18.50;58.50
2220;DHT22;1116;51.502;7.414;2023-10-19T10:26:57;18.40;59.80
2220;DHT22;1116;51.502;7.414;2023-10-19T10:29:30;18.30;59.30
2220;DHT22;1116;51.502;7.414;2023-10-19T10:32:03;18.40;60.00
2220;DHT22;1116;51.502;7.414;2023-10-19T10:34:42;18.60;59.70
2220;DHT22;1116;51.502;7.414;2023-10-19T10:37:13;18.80;58.10
2220;DHT22;1116;51.502;7.414;2023-10-19T10:39:43;18.80;55.30
2220;DHT22;1116;51.502;7.414;2023-10-19T10:42:14;19.00;55.80
2220;DHT22;1116;51.502;7.414;2023-10-19T10:44:47;19.20;55.40
2220;DHT22;1116;51.502;7.414;2023-10-19T10:47:25;19.40;50.90
2220;DHT22;1116;51.502;7.414;2023-10-19T10:49:58;19.80;49.90
2220;DHT22;1116;51.502;7.414;2023-10-19T10:52:31;19.90;50.00
2220;DHT22;1116;51.502;7.414;2023-10-19T10:55:08;19.60;49.80
2220;DHT22;1116;51.502;7.414;2023-10-19T10:57:40;19.60;50.50
2220;DHT22;1116;51.502;7.414;2023-10-19T11:00:12;19.70;49.70
2220;DHT22;1116;51.502;7.414;2023-10-19T11:02:59;20.00;47.70
2220;DHT22;1116;51.502;7.414;2023-10-19T11:05:31;20.80;47.30
2220;DHT22;1116;51.502;7.414;2023-10-19T11:08:08;21.50;44.30
2220;DHT22;1116;51.502;7.414;2023-10-19T11:10:41;21.60;43.40
2220;DHT22;1116;51.502;7.414;2023-10-19T11:13:14;21.90;44.00
2220;DHT22;1116;51.502;7.414;2023-10-19T11:15:49;22.10;36.90
2220;DHT22;1116;51.502;7.414;2023-10-19T11:18:32;22.30;38.70
2220;DHT22;1116;51.502;7.414;2023-10-19T11:21:08;22.00;38.30
2220;DHT22;1116;51.502;7.414;2023-10-19T11:23:43;21.80;38.10
2220;DHT22;1116;51.502;7.414;2023-10-19T11:26:19;21.50;41.10
2220;DHT22;1116;51.502;7.414;2023-10-19T11:28:57;21.20;40.70
2220;DHT22;1116;51.502;7.414;2023-10-19T11:31:27;21.00;40.80
2220;DHT22;1116;51.502;7.414;2023-10-19T11:34:07;20.80;41.00
2220;DHT22;1116;51.502;7.414;2023-10-19T11:36:45;20.60;40.90
2220;DHT22;1116;51.502;7.414;2023-10-19T11:39:15;20.50;42.30
2220;DHT22;1116;51.502;7.414;2023-10-19T11:41:46;20.40;42.20
2220;DHT22;1116;51.502;7.414;2023-10-19T11:44:16;20.30;42.20
2220;DHT22;1116;51.502;7.414;2023-10-19T11:46:46;20.30;44.00
2220;DHT22;1116;51.502;7.414;2023-10-19T11:49:19;20.30;44.00
2220;DHT22;1116;51.502;7.414;2023-10-19T11:51:52;20.30;41.70
2220;DHT22;1116;51.502;7.414;2023-10-19T11:54:24;20.30;41.80
2220;DHT22;1116;51.502;7.414;2023-10-19T11:56:54;20.30;41.30
2220;DHT22;1116;51.502;7.414;2023-10-19T11:59:24;20.30;40.50
2220;DHT22;1116;51.502;7.414;2023-10-19T12:01:54;20.50;42.20
2220;DHT22;1116;51.502;7.414;2023-10-19T12:04:28;20.80;42.70
2220;DHT22;1116;51.502;7.414;2023-10-19T12:07:00;21.90;38.20
2220;DHT22;1116;51.502;7.414;2023-10-19T12:09:30;22.10;35.90
2220;DHT22;1116;51.502;7.414;2023-10-19T12:12:00;22.10;36.90
2220;DHT22;1116;51.502;7.414;2023-10-19T12:14:33;22.20;36.00
2220;DHT22;1116;51.502;7.414;2023-10-19T12:17:03;22.40;37.60
2220;DHT22;1116;51.502;7.414;2023-10-19T12:19:37;22.00;35.10
2220;DHT22;1116;51.502;7.414;2023-10-19T12:22:08;21.70;36.60
2220;DHT22;1116;51.502;7.414;2023-10-19T12:24:38;21.50;37.50
2220;DHT22;1116;51.502;7.414;2023-10-19T12:27:08;21.40;38.20
2220;DHT22;1116;51.502;7.414;2023-10-19T12:29:40;21.20;37.90
2220;DHT22;1116;51.502;7.414;2023-10-19T12:32:11;21.00;38.50
2220;DHT22;1116;51.502;7.414;2023-10-19T12:34:44;21.00;39.40
2220;DHT22;1116;51.502;7.414;2023-10-19T12:37:20;20.90;41.20
2220;DHT22;1116;51.502;7.414;2023-10-19T12:39:51;20.90;40.40
2220;DHT22;1116;51.502;7.414;2023-10-19T12:42:22;20.80;39.60
2220;DHT22;1116;51.502;7.414;2023-10-19T12:44:53;20.60;40.80
2220;DHT22;1116;51.502;7.414;2023-10-19T12:47:23;20.60;41.90
2220;DHT22;1116;51.502;7.414;2023-10-19T12:49:56;20.70;41.10
2220;DHT22;1116;51.502;7.414;2023-10-19T12:52:27;20.50;42.90
2220;DHT22;1116;51.502;7.414;2023-10-19T12:55:03;20.40;40.60
2220;DHT22;1116;51.502;7.414;2023-10-19T12:57:34;20.20;41.70
2220;DHT22;1116;51.502;7.414;2023-10-19T13:00:07;20.20;42.30
2220;DHT22;1116;51.502;7.414;2023-10-19T13:02:53;20.10;41.90
2220;DHT22;1116;51.502;7.414;2023-10-19T13:05:32;20.00;43.40
2220;DHT22;1116;51.502;7.414;2023-10-19T13:08:05;20.00;43.60
2220;DHT22;1116;51.502;7.414;2023-10-19T13:10:36;19.90;43.70
2220;DHT22;1116;51.502;7.414;2023-10-19T13:13:10;19.90;44.40
2220;DHT22;1116;51.502;7.414;2023-10-19T13:15:43;19.80;44.50
2220;DHT22;1116;51.502;7.414;2023-10-19T13:18:15;19.70;44.70
2220;DHT22;1116;51.502;7.414;2023-10-19T13:20:50;19.60;44.30
2220;DHT22;1116;51.502;7.414;2023-10-19T13:23:21;19.60;46.20
2220;DHT22;1116;51.502;7.414;2023-10-19T13:25:51;19.60;45.70
2220;DHT22;1116;51.502;7.414;2023-10-19T13:28:28;19.50;45.40
2220;DHT22;1116;51.502;7.414;2023-10-19T13:30:58;19.50;46.00
2220;DHT22;1116;51.502;7.414;2023-10-19T13:33:30;19.60;46.70
2220;DHT22;1116;51.502;7.414;2023-10-19T13:36:03;19.60;46.10
2220;DHT22;1116;51.502;7.414;2023-10-19T13:38:34;19.50;46.00
2220;DHT22;1116;51.502;7.414;2023-10-19T13:41:04;19.50;46.00
2220;DHT22;1116;51.502;7.414;2023-10-19T13:43:38;19.50;46.10
2220;DHT22;1116;51.502;7.414;2023-10-19T13:46:09;19.50;46.60
2220;DHT22;1116;51.502;7.414;2023-10-19T13:48:39;19.40;46.50
2220;DHT22;1116;51.502;7.414;2023-10-19T13:51:15;19.40;47.50
2220;DHT22;1116;51.502;7.414;2023-10-19T13:53:47;19.40;46.30
2220;DHT22;1116;51.502;7.414;2023-10-19T13:56:17;19.40;47.20
2220;DHT22;1116;51.502;7.414;2023-10-19T13:58:47;19.30;48.70
2220;DHT22;1116;51.502;7.414;2023-10-19T14:01:17;19.30;48.90
2220;DHT22;1116;51.502;7.414;2023-10-19T14:03:51;19.10;48.80
2220;DHT22;1116;51.502;7.414;2023-10-19T14:06:26;19.10;49.50
2220;DHT22;1116;51.502;7.414;2023-10-19T14:08:56;19.10;51.30
2220;DHT22;1116;51.502;7.414;2023-10-19T14:11:26;18.90;51.60
2220;DHT22;1116;51.502;7.414;2023-10-19T14:13:57;18.70;51.60
2220;DHT22;1116;51.502;7.414;2023-10-19T14:16:27;18.60;52.90
2220;DHT22;1116;51.502;7.414;2023-10-19T14:18:58;18.40;55.30
2220;DHT22;1116;51.502;7.414;2023-10-19T14:21:32;18.60;57.40
2220;DHT22;1116;51.502;7.414;2023-10-19T14:24:05;18.30;57.80
2220;DHT22;1116;51.502;7.414;2023-10-19T14:26:36;18.20;56.60
2220;DHT22;1116;51.502;7.414;2023-10-19T14:29:07;18.20;57.30
2220;DHT22;1116;51.502;7.414;2023-10-19T14:31:39;18.10;57.70
2220;DHT22;1116;51.502;7.414;2023-10-19T14:34:09;18.10;58.30
2220;DHT22;1116;51.502;7.414;2023-10-19T14:36:42;18.20;56.50
2220;DHT22;1116;51.502;7.414;2023-10-19T14:39:12;18.20;58.30
2220;DHT22;1116;51.502;7.414;2023-10-19T14:41:45;18.40;59.20
2220;DHT22;1116;51.502;7.414;2023-10-19T14:44:15;18.30;58.40
2220;DHT22;1116;51.502;7.414;2023-10-19T14:46:45;18.30;57.10
2220;DHT22;1116;51.502;7.414;2023-10-19T14:49:15;18.20;57.10
2220;DHT22;1116;51.502;7.414;2023-10-19T14:51:48;18.30;58.00
2220;DHT22;1116;51.502;7.414;2023-10-19T14:54:19;18.30;58.20
2220;DHT22;1116;51.502;7.414;2023-10-19T14:56:49;18.20;57.80
2220;DHT22;1116;51.502;7.414;2023-10-19T14:59:19;18.20;58.10
2220;DHT22;1116;51.502;7.414;2023-10-19T15:01:49;18.10;58.80
2220;DHT22;1116;51.502;7.414;2023-10-19T15:04:20;18.10;58.40
2220;DHT22;1116;51.502;7.414;2023-10-19T15:06:56;18.10;59.30
2220;DHT22;1116;51.502;7.414;2023-10-19T15:09:27;18.10;59.80
2220;DHT22;1116;51.502;7.414;2023-10-19T15:11:58;18.10;59.40
2220;DHT22;1116;51.502;7.414;2023-10-19T15:14:29;18.10;59.70
2220;DHT22;1116;51.502;7.414;2023-10-19T15:17:00;18.20;60.00
2220;DHT22;1116;51.502;7.414;2023-10-19T15:19:30;18.20;60.60
2220;DHT22;1116;51.502;7.414;2023-10-19T15:22:03;18.20;60.00
2220;DHT22;1116;51.502;7.414;2023-10-19T15:24:34;18.20;60.60
2220;DHT22;1116;51.502;7.414;2023-10-19T15:27:04;18.30;60.10
2220;DHT22;1116;51.502;7.414;2023-10-19T15:29:35;18.40;60.20
2220;DHT22;1116;51.502;7.414;2023-10-19T15:32:05;18.30;59.50
2220;DHT22;1116;51.502;7.414;2023-10-19T15:34:35;18.30;60.90
2220;DHT22;1116;51.502;7.414;2023-10-19T15:37:08;18.30;60.00
2220;DHT22;1116;51.502;7.414;2023-10-19T15:39:39;18.20;60.10
2220;DHT22;1116;51.502;7.414;2023-10-19T15:42:11;18.20;60.10
2220;DHT22;1116;51.502;7.414;2023-10-19T15:44:41;18.20;60.40
2220;DHT22;1116;51.502;7.414;2023-10-19T15:47:12;18.10;60.00
2220;DHT22;1116;51.502;7.414;2023-10-19T15:49:47;18.10;59.90
2220;DHT22;1116;51.502;7.414;2023-10-19T15:52:23;18.10;60.20
2220;DHT22;1116;51.502;7.414;2023-10-19T15:54:55;18.10;60.60
2220;DHT22;1116;51.502;7.414;2023-10-19T15:57:25;18.10;60.10
2220;DHT22;1116;51.502;7.414;2023-10-19T15:59:57;18.00;60.00
2220;DHT22;1116;51.502;7.414;2023-10-19T16:02:27;18.00;60.00
2220;DHT22;1116;51.502;7.414;2023-10-19T16:04:58;18.00;60.50
2220;DHT22;1116;51.502;7.414;2023-10-19T16:07:31;18.00;60.30
2220;DHT22;1116;51.502;7.414;2023-10-19T16:10:03;17.90;59.50
2220;DHT22;1116;51.502;7.414;2023-10-19T16:12:38;17.90;59.70
2220;DHT22;1116;51.502;7.414;2023-10-19T16:15:09;17.90;59.60
2220;DHT22;1116;51.502;7.414;2023-10-19T16:17:40;17.80;59.60
2220;DHT22;1116;51.502;7.414;2023-10-19T16:20:11;17.80;59.90
2220;DHT22;1116;51.502;7.414;2023-10-19T16:22:45;17.80;60.20
2220;DHT22;1116;51.502;7.414;2023-10-19T16:25:15;17.80;60.40
2220;DHT22;1116;51.502;7.414;2023-10-19T16:27:46;17.70;61.00
2220;DHT22;1116;51.502;7.414;2023-10-19T16:30:16;17.70;60.60
2220;DHT22;1116;51.502;7.414;2023-10-19T16:32:46;17.60;61.30
2220;DHT22;1116;51.502;7.414;2023-10-19T16:35:17;17.60;61.30
2220;DHT22;1116;51.502;7.414;2023-10-19T16:37:49;17.60;61.00
2220;DHT22;1116;51.502;7.414;2023-10-19T16:40:20;17.60;61.20